createdAt,value
2018-12-16T00:00:09.949Z,23
2018-12-16T00:02:05.643Z,23
2018-12-16T00:04:05.521Z,23
2018-12-16T00:06:05.196Z,22.9
2018-12-16T00:08:04.876Z,22.9
2018-12-16T00:10:05.479Z,22.9
2018-12-16T00:12:08.054Z,23
2018-12-16T00:14:04.768Z,22.9
2018-12-16T00:16:05.689Z,23
2018-12-16T00:18:05.582Z,22.9
2018-12-16T00:20:05.485Z,22.9
2018-12-16T00:22:07.842Z,22.9
2018-12-16T00:24:05.085Z,22.9
2018-12-16T00:26:04.802Z,22.9
2018-12-16T00:28:05.514Z,22.9
2018-12-16T00:30:07.798Z,22.9
2018-12-16T00:32:05.519Z,22.9
2018-12-16T00:34:07.992Z,23
2018-12-16T00:36:04.658Z,22.9
2018-12-16T00:38:07.867Z,22.8
2018-12-16T00:40:05.570Z,22.8
2018-12-16T00:42:10.559Z,22.8
2018-12-16T00:44:05.347Z,22.8
2018-12-16T00:46:05.655Z,22.9
2018-12-16T00:48:05.332Z,22.8
2018-12-16T00:50:05.078Z,22.8
2018-12-16T00:52:05.033Z,22.8
2018-12-16T00:54:04.846Z,22.8
2018-12-16T00:56:04.790Z,22.8
2018-12-16T00:58:05.438Z,22.8
2018-12-16T01:00:07.623Z,22.7
2018-12-16T01:02:07.838Z,22.7
2018-12-16T01:04:05.560Z,22.7
2018-12-16T01:06:05.247Z,22.7
2018-12-16T01:08:05.013Z,22.7
2018-12-16T01:10:04.699Z,22.7
2018-12-16T01:12:04.929Z,22.7
2018-12-16T01:14:08.094Z,22.7
2018-12-16T01:16:04.803Z,22.7
2018-12-16T01:18:04.727Z,22.7
2018-12-16T01:20:07.985Z,22.7
2018-12-16T01:22:04.720Z,22.6
2018-12-16T01:24:05.472Z,22.7
2018-12-16T01:26:05.218Z,22.6
2018-12-16T01:28:04.964Z,22.7
2018-12-16T01:30:04.651Z,22.7
2018-12-16T01:32:05.358Z,22.8
2018-12-16T01:34:10.217Z,22.7
2018-12-16T01:36:10.324Z,22.7
2018-12-16T01:38:05.015Z,22.7
2018-12-16T01:40:04.761Z,22.7
2018-12-16T01:42:05.435Z,22.7
2018-12-16T01:44:05.168Z,22.7
2018-12-16T01:46:04.847Z,22.7
2018-12-16T01:48:08.122Z,22.7
2018-12-16T01:50:04.887Z,22.7
2018-12-16T01:52:08.109Z,22.7
2018-12-16T01:54:07.313Z,22.7
2018-12-16T01:56:05.108Z,22.7
2018-12-16T01:58:05.629Z,22.7
2018-12-16T02:00:05.343Z,22.7
2018-12-16T02:02:04.649Z,22.7
2018-12-16T02:04:07.961Z,22.6
2018-12-16T02:06:04.622Z,22.6
2018-12-16T02:08:04.877Z,22.6
2018-12-16T02:10:05.147Z,22.6
2018-12-16T02:12:12.401Z,22.6
2018-12-16T02:14:04.719Z,22.6
2018-12-16T02:16:05.602Z,22.6
2018-12-16T02:18:05.592Z,22.6
2018-12-16T02:20:05.274Z,22.6
2018-12-16T02:22:04.972Z,22.6
2018-12-16T02:24:04.653Z,22.6
2018-12-16T02:26:05.312Z,22.6
2018-12-16T02:28:05.339Z,22.6
2018-12-16T02:30:05.213Z,22.6
2018-12-16T02:32:10.030Z,22.6
2018-12-16T02:34:04.713Z,22.6
2018-12-16T02:36:05.397Z,22.6
2018-12-16T02:38:10.295Z,22.6
2018-12-16T02:40:08.349Z,22.6
2018-12-16T02:42:05.094Z,22.6
2018-12-16T02:44:04.813Z,22.5
2018-12-16T02:46:10.578Z,22.5
2018-12-16T02:48:07.816Z,22.5
2018-12-16T02:50:05.493Z,22.5
2018-12-16T02:52:05.439Z,22.5
2018-12-16T02:54:07.747Z,22.5
2018-12-16T02:56:05.442Z,22.5
2018-12-16T02:58:05.155Z,22.5
2018-12-16T03:00:07.525Z,22.5
2018-12-16T03:02:05.227Z,22.5
2018-12-16T03:04:04.994Z,22.5
2018-12-16T03:06:04.865Z,22.5
2018-12-16T03:08:05.092Z,22.5
2018-12-16T03:10:05.391Z,22.5
2018-12-16T03:12:05.109Z,22.5
2018-12-16T03:14:04.752Z,22.5
2018-12-16T03:16:04.988Z,22.5
2018-12-16T03:18:04.886Z,22.5
2018-12-16T03:20:05.582Z,22.5
2018-12-16T03:22:05.497Z,22.5
2018-12-16T03:24:05.179Z,22.5
2018-12-16T03:26:04.836Z,22.5
2018-12-16T03:28:08.131Z,22.5
2018-12-16T03:30:04.869Z,22.5
2018-12-16T03:32:07.227Z,22.5
2018-12-16T03:34:05.454Z,22.4
2018-12-16T03:36:05.094Z,22.5
2018-12-16T03:38:04.786Z,22.5
2018-12-16T03:40:05.564Z,22.5
2018-12-16T03:42:07.833Z,22.5
2018-12-16T03:44:05.530Z,22.5
2018-12-16T03:46:12.750Z,22.5
2018-12-16T03:48:05.396Z,22.5
2018-12-16T03:50:07.620Z,22.5
2018-12-16T03:52:05.301Z,22.5
2018-12-16T03:54:07.543Z,22.5
2018-12-16T03:56:05.289Z,22.5
2018-12-16T03:58:07.513Z,22.5
2018-12-16T04:00:06.254Z,22.5
2018-12-16T04:02:05.529Z,22.4
2018-12-16T04:04:07.482Z,22.5
2018-12-16T04:06:07.666Z,22.5
2018-12-16T04:08:04.875Z,22.4
2018-12-16T04:10:05.180Z,22.5
2018-12-16T04:12:04.838Z,22.4
2018-12-16T04:14:05.590Z,22.4
2018-12-16T04:16:04.988Z,22.4
2018-12-16T04:18:04.873Z,22.5
2018-12-16T04:20:05.629Z,22.4
2018-12-16T04:22:05.385Z,22.4
2018-12-16T04:24:04.648Z,22.4
2018-12-16T04:26:15.530Z,22.4
2018-12-16T04:28:05.192Z,22.4
2018-12-16T04:30:04.929Z,22.5
2018-12-16T04:32:04.698Z,22.4
2018-12-16T04:34:07.929Z,22.4
2018-12-16T04:36:04.615Z,22.3
2018-12-16T04:38:05.307Z,22.3
2018-12-16T04:40:15.089Z,22.4
2018-12-16T04:42:04.826Z,22.4
2018-12-16T04:44:05.062Z,22.4
2018-12-16T04:46:05.625Z,22.3
2018-12-16T04:48:05.414Z,22.4
2018-12-16T04:50:05.167Z,22.4
2018-12-16T04:52:07.436Z,22.5
2018-12-16T04:54:07.632Z,22.5
2018-12-16T04:56:07.943Z,22.5
2018-12-16T04:58:07.178Z,22.5
2018-12-16T05:00:04.845Z,22.5
2018-12-16T05:02:08.112Z,22.5
2018-12-16T05:04:05.443Z,22.5
2018-12-16T05:06:04.771Z,22.6
2018-12-16T05:08:05.508Z,22.6
2018-12-16T05:10:05.303Z,22.6
2018-12-16T05:12:07.561Z,22.6
2018-12-16T05:14:04.838Z,22.6
2018-12-16T05:16:05.500Z,22.7
2018-12-16T05:18:07.963Z,22.8
2018-12-16T05:20:04.698Z,22.7
2018-12-16T05:22:05.372Z,22.7
2018-12-16T05:24:08.096Z,22.7
2018-12-16T05:26:04.870Z,22.7
2018-12-16T05:28:05.565Z,22.8
2018-12-16T05:30:07.926Z,22.8
2018-12-16T05:32:04.634Z,22.8
2018-12-16T05:34:08.412Z,22.8
2018-12-16T05:36:08.623Z,22.8
2018-12-16T05:38:07.834Z,22.8
2018-12-16T05:40:05.496Z,22.8
2018-12-16T05:42:10.275Z,22.9
2018-12-16T05:44:05.034Z,22.9
2018-12-16T05:46:04.999Z,22.9
2018-12-16T05:48:07.631Z,22.8
2018-12-16T05:50:07.965Z,22.8
2018-12-16T05:52:04.650Z,22.8
2018-12-16T05:54:05.342Z,22.8
2018-12-16T05:56:05.118Z,22.9
2018-12-16T05:58:07.356Z,22.9
2018-12-16T06:00:05.023Z,22.8
2018-12-16T06:02:07.289Z,22.8
2018-12-16T06:04:04.939Z,22.8
2018-12-16T06:06:04.655Z,22.8
2018-12-16T06:08:05.609Z,22.8
2018-12-16T06:10:05.306Z,22.7
2018-12-16T06:12:04.961Z,22.7
2018-12-16T06:14:04.706Z,22.7
2018-12-16T06:16:05.460Z,22.7
2018-12-16T06:18:10.520Z,22.7
2018-12-16T06:20:04.774Z,22.7
2018-12-16T06:22:05.594Z,22.7
2018-12-16T06:24:12.857Z,22.7
2018-12-16T06:26:08.059Z,22.7
2018-12-16T06:28:04.765Z,22.7
2018-12-16T06:30:05.472Z,22.6
2018-12-16T06:32:05.095Z,22.7
2018-12-16T06:34:09.907Z,22.6
2018-12-16T06:36:04.708Z,22.7
2018-12-16T06:38:04.986Z,22.7
2018-12-16T06:40:04.652Z,22.7
2018-12-16T06:42:07.863Z,22.9
2018-12-16T06:44:08.105Z,22.8
2018-12-16T06:46:04.768Z,22.8
2018-12-16T06:48:04.987Z,22.8
2018-12-16T06:50:04.712Z,22.8
2018-12-16T06:52:05.416Z,22.9
2018-12-16T06:54:07.687Z,22.8
2018-12-16T06:56:07.917Z,22.8
2018-12-16T06:58:10.644Z,22.8
2018-12-16T07:00:07.357Z,22.8
2018-12-16T07:02:07.591Z,22.8
2018-12-16T07:04:05.263Z,22.8
2018-12-16T07:06:04.949Z,22.8
2018-12-16T07:08:05.140Z,22.8
2018-12-16T07:10:04.908Z,22.9
2018-12-16T07:12:08.096Z,22.8
2018-12-16T07:14:05.311Z,22.8
2018-12-16T07:16:05.025Z,22.8
2018-12-16T07:18:05.432Z,22.9
2018-12-16T07:20:05.150Z,22.8
2018-12-16T07:22:05.517Z,22.8
2018-12-16T07:24:09.110Z,22.8
2018-12-16T07:26:05.166Z,22.7
2018-12-16T07:28:07.602Z,22.7
2018-12-16T07:30:07.924Z,22.8
2018-12-16T07:32:07.281Z,22.8
2018-12-16T07:34:05.022Z,22.8
2018-12-16T07:36:04.733Z,22.8
2018-12-16T07:38:07.765Z,22.9
2018-12-16T07:40:05.098Z,22.9
2018-12-16T07:42:05.101Z,23
2018-12-16T07:44:04.840Z,23
2018-12-16T07:46:05.808Z,23
2018-12-16T07:48:05.665Z,23
2018-12-16T07:50:04.649Z,23
2018-12-16T07:52:05.486Z,23
2018-12-16T07:54:05.261Z,23
2018-12-16T07:56:05.409Z,23
2018-12-16T07:58:05.184Z,23
2018-12-16T08:00:05.522Z,22.9
2018-12-16T08:02:05.223Z,22.9
2018-12-16T08:04:05.465Z,22.9
2018-12-16T08:06:05.193Z,22.9
2018-12-16T08:08:07.631Z,22.9
2018-12-16T08:10:05.580Z,22.9
2018-12-16T08:12:07.798Z,22.9
2018-12-16T08:14:06.045Z,22.8
2018-12-16T08:16:07.588Z,22.9
2018-12-16T08:18:05.456Z,22.8
2018-12-16T08:20:05.300Z,22.8
2018-12-16T08:22:05.232Z,22.8
2018-12-16T08:24:07.466Z,22.8
2018-12-16T08:26:05.199Z,22.8
2018-12-16T08:28:05.410Z,22.8
2018-12-16T08:30:07.653Z,22.9
2018-12-16T08:32:07.854Z,22.9
2018-12-16T08:34:13.128Z,22.9
2018-12-16T08:36:04.771Z,22.9
2018-12-16T08:38:05.452Z,22.9
2018-12-16T08:40:05.152Z,22.9
2018-12-16T08:42:05.023Z,22.9
2018-12-16T08:44:04.913Z,22.9
2018-12-16T08:46:05.125Z,22.9
2018-12-16T08:48:05.057Z,23
2018-12-16T08:50:10.286Z,23
2018-12-16T08:52:05.164Z,23
2018-12-16T08:54:04.892Z,23.1
2018-12-16T08:56:05.127Z,23.1
2018-12-16T08:58:09.855Z,23.1
2018-12-16T09:00:05.645Z,23.1
2018-12-16T09:02:10.033Z,23.1
2018-12-16T09:04:05.614Z,23.1
2018-12-16T09:06:07.823Z,23.1
2018-12-16T09:08:05.567Z,23.1
2018-12-16T09:10:05.502Z,23.1
2018-12-16T09:12:08.221Z,23.1
2018-12-16T09:15:44.452Z,23.1
2018-12-16T09:16:05.473Z,23.1
2018-12-16T09:18:05.389Z,23.1
2018-12-16T09:20:05.096Z,23.1
2018-12-16T09:22:04.858Z,23.1
2018-12-16T09:24:05.522Z,23.1
2018-12-16T09:26:05.177Z,23.1
2018-12-16T09:28:08.157Z,23
2018-12-16T09:30:05.625Z,23
2018-12-16T09:32:12.926Z,23
2018-12-16T09:34:04.936Z,23
2018-12-16T09:36:04.683Z,22.9
2018-12-16T09:38:05.385Z,22.9
2018-12-16T09:40:05.329Z,22.9
2018-12-16T09:42:05.075Z,22.9
2018-12-16T09:44:05.362Z,22.9
2018-12-16T09:46:05.136Z,22.9
2018-12-16T09:48:07.600Z,22.9
2018-12-16T09:50:05.301Z,22.9
2018-12-16T09:52:10.130Z,22.9
2018-12-16T09:54:04.806Z,22.9
2018-12-16T09:56:05.882Z,22.9
2018-12-16T09:58:05.296Z,22.9
2018-12-16T10:00:05.506Z,22.9
2018-12-16T10:02:05.199Z,22.9
2018-12-16T10:04:05.469Z,23
2018-12-16T10:06:04.667Z,23
2018-12-16T10:08:05.481Z,23
2018-12-16T10:10:10.429Z,23
2018-12-16T10:12:05.119Z,23
2018-12-16T10:14:04.871Z,23
2018-12-16T10:16:05.546Z,23
2018-12-16T10:18:06.443Z,23
2018-12-16T10:20:05.119Z,23
2018-12-16T10:22:07.897Z,23
2018-12-16T10:24:05.553Z,23
2018-12-16T10:26:05.507Z,23
2018-12-16T10:28:05.307Z,23
2018-12-16T10:31:29.583Z,23
2018-12-16T10:32:04.961Z,23
2018-12-16T10:34:07.744Z,23.1
2018-12-16T10:36:05.036Z,23.1
2018-12-16T10:38:04.736Z,23.1
2018-12-16T10:40:05.359Z,23.1
2018-12-16T10:42:04.976Z,23.1
2018-12-16T10:44:04.630Z,23
2018-12-16T10:46:05.427Z,23.1
2018-12-16T10:48:05.139Z,23.1
2018-12-16T10:50:04.855Z,23.1
2018-12-16T10:52:05.553Z,23.1
2018-12-16T10:54:04.759Z,23
2018-12-16T10:56:10.503Z,23
2018-12-16T10:58:05.237Z,23
2018-12-16T11:00:04.907Z,23
2018-12-16T11:02:05.716Z,23
2018-12-16T11:04:05.797Z,23.1
2018-12-16T11:06:10.733Z,23.1
2018-12-16T11:08:08.087Z,23.1
2018-12-16T11:10:07.308Z,23.1
2018-12-16T11:12:05.073Z,23.1
2018-12-16T11:14:04.903Z,23.2
2018-12-16T11:16:04.962Z,23.2
2018-12-16T11:18:12.386Z,23.2
2018-12-16T11:20:08.176Z,23.2
2018-12-16T11:22:07.485Z,23.2
2018-12-16T11:24:05.427Z,23.2
2018-12-16T11:26:05.110Z,23.2
2018-12-16T11:28:04.816Z,23.2
2018-12-16T11:30:05.555Z,23.1
2018-12-16T11:32:05.248Z,23.1
2018-12-16T11:34:04.997Z,23.1
2018-12-16T11:36:07.739Z,23.1
2018-12-16T11:38:04.808Z,23.1
2018-12-16T11:40:08.324Z,23.1
2018-12-16T11:42:07.633Z,23.1
2018-12-16T11:44:04.886Z,23.1
2018-12-16T11:46:05.589Z,23.1
2018-12-16T11:48:05.255Z,23.1
2018-12-16T11:50:04.936Z,23.1
2018-12-16T11:52:04.677Z,23.1
2018-12-16T11:54:05.377Z,23.1
2018-12-16T11:56:05.030Z,23.1
2018-12-16T11:58:04.743Z,23.1
2018-12-16T12:00:05.436Z,23.1
2018-12-16T12:02:05.093Z,23.1
2018-12-16T12:04:04.896Z,23.1
2018-12-16T12:06:07.672Z,23.1
2018-12-16T12:08:05.322Z,23.1
2018-12-16T12:10:07.538Z,23.1
2018-12-16T12:12:05.284Z,23.1
2018-12-16T12:14:05.480Z,23.1
2018-12-16T12:16:05.224Z,23
2018-12-16T12:18:10.153Z,23
2018-12-16T12:20:04.802Z,23.1
2018-12-16T12:22:05.505Z,23
2018-12-16T12:24:05.163Z,23
2018-12-16T12:26:04.860Z,23
2018-12-16T12:28:05.613Z,23
2018-12-16T12:30:07.309Z,23
2018-12-16T12:32:12.572Z,23
2018-12-16T12:34:05.266Z,22.9
2018-12-16T12:36:12.546Z,23
2018-12-16T12:38:04.824Z,23
2018-12-16T12:40:07.772Z,23
2018-12-16T12:42:05.016Z,23
2018-12-16T12:44:07.192Z,23.1
2018-12-16T12:46:04.863Z,23.1
2018-12-16T12:48:08.060Z,23.1
2018-12-16T12:50:07.683Z,23.1
2018-12-16T12:52:05.372Z,23.1
2018-12-16T12:54:06.632Z,23.2
2018-12-16T12:56:04.984Z,23.2
2018-12-16T12:58:07.245Z,23.2
2018-12-16T13:00:04.925Z,23.2
2018-12-16T13:02:05.190Z,23.2
2018-12-16T13:04:04.941Z,23.2
2018-12-16T13:06:05.758Z,23.2
2018-12-16T13:08:05.451Z,23.2
2018-12-16T13:10:05.315Z,23.2
2018-12-16T13:12:17.656Z,23.2
2018-12-16T13:14:05.315Z,23.2
2018-12-16T13:16:05.432Z,23.2
2018-12-16T13:18:05.340Z,23.2
2018-12-16T13:20:04.783Z,23.2
2018-12-16T13:22:05.565Z,23.2
2018-12-16T13:24:05.294Z,23.2
2018-12-16T13:26:04.959Z,23.2
2018-12-16T13:28:04.658Z,23.1
2018-12-16T13:30:05.364Z,23.2
2018-12-16T13:32:07.793Z,23.1
2018-12-16T13:34:05.713Z,23.1
2018-12-16T13:36:07.470Z,23.1
2018-12-16T13:38:08.676Z,23.1
2018-12-16T13:40:05.626Z,23.1
2018-12-16T13:42:05.302Z,23.1
2018-12-16T13:44:07.618Z,23.1
2018-12-16T13:46:10.387Z,23.1
2018-12-16T13:48:05.161Z,23.1
2018-12-16T13:50:07.373Z,23.2
2018-12-16T13:52:05.822Z,23.2
2018-12-16T13:54:05.506Z,23.1
2018-12-16T13:56:05.183Z,23.1
2018-12-16T13:58:10.220Z,23.2
2018-12-16T14:00:10.487Z,23.1
2018-12-16T14:02:04.684Z,23.1
2018-12-16T14:04:05.389Z,23.1
2018-12-16T14:06:05.105Z,23.1
2018-12-16T14:08:04.778Z,23.1
2018-12-16T14:10:05.686Z,23.1
2018-12-16T14:12:05.354Z,23.1
2018-12-16T14:14:05.550Z,23.1
2018-12-16T14:16:12.833Z,23.2
2018-12-16T14:18:07.324Z,23.2
2018-12-16T14:20:05.240Z,23.2
2018-12-16T14:22:04.939Z,23.2
2018-12-16T14:24:04.621Z,23.2
2018-12-16T14:26:05.373Z,23.2
2018-12-16T14:28:05.617Z,23.1
2018-12-16T14:30:05.627Z,23.2
2018-12-16T14:32:05.501Z,23.1
2018-12-16T14:34:04.822Z,23.2
2018-12-16T14:36:08.048Z,23.1
2018-12-16T14:38:04.733Z,23.1
2018-12-16T14:40:05.417Z,23.1
2018-12-16T14:42:05.156Z,23.1
2018-12-16T14:44:07.395Z,23.1
2018-12-16T14:46:05.101Z,23.1
2018-12-16T14:48:14.931Z,23.1
2018-12-16T14:50:05.319Z,23.1
2018-12-16T14:52:08.163Z,23
2018-12-16T14:54:04.814Z,23
2018-12-16T14:56:05.562Z,23
2018-12-16T14:58:05.273Z,23
2018-12-16T15:00:05.485Z,23.1
2018-12-16T15:02:04.752Z,23.1
2018-12-16T15:04:05.502Z,23.1
2018-12-16T15:06:07.319Z,23
2018-12-16T15:08:08.052Z,23
2018-12-16T15:10:04.801Z,23
2018-12-16T15:12:04.980Z,23.1
2018-12-16T15:14:04.724Z,23.1
2018-12-16T15:16:05.654Z,23.1
2018-12-16T15:18:05.540Z,23.1
2018-12-16T15:20:04.718Z,23.1
2018-12-16T15:22:07.916Z,23.2
2018-12-16T15:24:05.121Z,23.1
2018-12-16T15:26:04.775Z,23.2
2018-12-16T15:28:05.620Z,23.2
2018-12-16T15:30:05.332Z,23.2
2018-12-16T15:32:07.614Z,23.2
2018-12-16T15:34:10.396Z,23.2
2018-12-16T15:36:07.590Z,23.2
2018-12-16T15:38:10.290Z,23.2
2018-12-16T15:40:06.289Z,23.2
2018-12-16T15:42:07.630Z,23.2
2018-12-16T15:44:10.402Z,23.1
2018-12-16T15:46:05.324Z,23.1
2018-12-16T15:48:05.068Z,23.1
2018-12-16T15:50:04.837Z,23.1
2018-12-16T15:52:05.811Z,23.1
2018-12-16T15:54:04.996Z,23
2018-12-16T15:56:09.200Z,23
2018-12-16T15:58:05.251Z,23.1
2018-12-16T16:00:04.935Z,23
2018-12-16T16:02:04.671Z,23
2018-12-16T16:04:05.378Z,23
2018-12-16T16:06:07.631Z,23
2018-12-16T16:08:05.431Z,23
2018-12-16T16:10:05.098Z,23
2018-12-16T16:12:07.290Z,22.9
2018-12-16T16:14:07.532Z,23
2018-12-16T16:16:05.224Z,22.9
2018-12-16T16:18:05.107Z,23
2018-12-16T16:20:04.891Z,23
2018-12-16T16:22:05.666Z,22.9
2018-12-16T16:24:07.428Z,23
2018-12-16T16:26:07.673Z,22.9
2018-12-16T16:28:04.661Z,22.9
2018-12-16T16:30:05.009Z,22.9
2018-12-16T16:32:07.244Z,22.9
2018-12-16T16:34:04.910Z,22.9
2018-12-16T16:36:09.678Z,23
2018-12-16T16:38:05.370Z,23
2018-12-16T16:40:05.087Z,23
2018-12-16T16:42:04.785Z,23.1
2018-12-16T16:44:05.563Z,23
2018-12-16T16:46:07.288Z,23.1
2018-12-16T16:48:13.105Z,23.1
2018-12-16T16:50:07.392Z,23.2
2018-12-16T16:52:05.086Z,23.2
2018-12-16T16:54:04.755Z,23.2
2018-12-16T16:56:05.510Z,23.1
2018-12-16T16:58:05.234Z,23.1
2018-12-16T17:00:07.468Z,23.1
2018-12-16T17:02:07.206Z,23.2
2018-12-16T17:04:05.020Z,23.2
2018-12-16T17:06:07.254Z,23.1
2018-12-16T17:08:04.978Z,23.1
2018-12-16T17:10:05.097Z,23.2
2018-12-16T17:12:07.301Z,23.1
2018-12-16T17:14:08.066Z,23.1
2018-12-16T17:16:04.780Z,23.2
2018-12-16T17:18:05.771Z,23.1
2018-12-16T17:20:07.424Z,23.1
2018-12-16T17:22:05.118Z,23.1
2018-12-16T17:24:05.073Z,23.1
2018-12-16T17:26:07.251Z,23
2018-12-16T17:28:09.699Z,23
2018-12-16T17:30:05.046Z,23.1
2018-12-16T17:32:04.874Z,23
2018-12-16T17:34:05.591Z,23
2018-12-16T17:36:05.323Z,23
2018-12-16T17:38:05.114Z,22.9
2018-12-16T17:40:04.800Z,22.9
2018-12-16T17:42:10.498Z,22.9
2018-12-16T17:44:05.179Z,23
2018-12-16T17:46:04.905Z,23
2018-12-16T17:48:08.132Z,22.9
2018-12-16T17:50:05.540Z,22.9
2018-12-16T17:52:04.748Z,23
2018-12-16T17:54:05.432Z,23
2018-12-16T17:56:07.659Z,23
2018-12-16T17:58:10.624Z,23
2018-12-16T18:00:05.380Z,23
2018-12-16T18:02:04.746Z,23.1
2018-12-16T18:04:05.423Z,23.1
2018-12-16T18:06:07.624Z,23.1
2018-12-16T18:08:05.364Z,23.1
2018-12-16T18:10:06.560Z,23.1
2018-12-16T18:12:05.275Z,23.1
2018-12-16T18:14:05.206Z,23.1
2018-12-16T18:16:04.949Z,23.1
2018-12-16T18:18:04.837Z,23.1
2018-12-16T18:20:05.601Z,23.1
2018-12-16T18:22:05.273Z,23.1
2018-12-16T18:24:07.408Z,23.1
2018-12-16T18:26:05.315Z,23.1
2018-12-16T18:28:04.997Z,23.1
2018-12-16T18:30:07.212Z,23.1
2018-12-16T18:32:04.692Z,23.1
2018-12-16T18:34:04.880Z,23.1
2018-12-16T18:36:08.412Z,23.1
2018-12-16T18:38:05.063Z,23.1
2018-12-16T18:40:04.795Z,23.1
2018-12-16T18:42:05.472Z,23.1
2018-12-16T18:44:05.310Z,23.1
2018-12-16T18:46:05.510Z,23.1
2018-12-16T18:48:05.127Z,23.1
2018-12-16T18:50:07.451Z,23
2018-12-16T18:52:05.115Z,23
2018-12-16T18:54:07.300Z,23.1
2018-12-16T18:56:04.960Z,23
2018-12-16T18:58:05.261Z,23
2018-12-16T19:00:05.491Z,23.1
2018-12-16T19:02:05.203Z,23.1
2018-12-16T19:04:12.600Z,23.2
2018-12-16T19:06:05.270Z,23.2
2018-12-16T19:08:04.963Z,23.1
2018-12-16T19:10:04.638Z,23.1
2018-12-16T19:12:10.073Z,23.2
2018-12-16T19:14:04.736Z,23.2
2018-12-16T19:16:05.558Z,23.2
2018-12-16T19:18:07.818Z,23.2
2018-12-16T19:20:08.072Z,23.2
2018-12-16T19:22:04.739Z,23.2
2018-12-16T19:24:07.819Z,23.2
2018-12-16T19:26:05.619Z,23.2
2018-12-16T19:28:07.303Z,23.2
2018-12-16T19:30:04.982Z,23.2
2018-12-16T19:32:04.926Z,23.2
2018-12-16T19:34:04.631Z,23.1
2018-12-16T19:36:05.287Z,23.1
2018-12-16T19:38:05.002Z,23.1
2018-12-16T19:40:12.284Z,23
2018-12-16T19:42:05.193Z,23
2018-12-16T19:44:04.910Z,23
2018-12-16T19:46:05.560Z,23.1
2018-12-16T19:48:05.239Z,23
2018-12-16T19:50:08.384Z,23
2018-12-16T19:52:05.067Z,23
2018-12-16T19:54:04.743Z,23
2018-12-16T19:56:04.646Z,22.9
2018-12-16T19:58:05.324Z,23
2018-12-16T20:00:05.520Z,22.9
2018-12-16T20:02:05.286Z,23
2018-12-16T20:04:05.222Z,23
2018-12-16T20:06:09.947Z,23
2018-12-16T20:08:04.587Z,23.1
2018-12-16T20:10:05.599Z,23.1
2018-12-16T20:12:10.398Z,23
2018-12-16T20:14:05.122Z,23
2018-12-16T20:16:12.471Z,23.1
2018-12-16T20:18:05.409Z,23.1
2018-12-16T20:20:05.101Z,23.2
2018-12-16T20:22:04.788Z,23.2
2018-12-16T20:24:12.670Z,23.2
2018-12-16T20:26:05.407Z,23.2
2018-12-16T20:28:07.610Z,23.2
2018-12-16T20:30:05.261Z,23.2
2018-12-16T20:32:04.986Z,23.2
2018-12-16T20:34:05.247Z,23.2
2018-12-16T20:36:04.965Z,23.2
2018-12-16T20:38:04.752Z,23.1
2018-12-16T20:40:05.505Z,23.1
2018-12-16T20:42:05.191Z,23.1
2018-12-16T20:44:04.978Z,23.1
2018-12-16T20:46:04.630Z,23.1
2018-12-16T20:48:05.326Z,23.2
2018-12-16T20:50:05.048Z,23.2
2018-12-16T20:52:04.743Z,23.1
2018-12-16T20:54:05.418Z,23.1
2018-12-16T20:56:05.194Z,23.1
2018-12-16T20:58:04.954Z,23.1
2018-12-16T21:00:07.156Z,23
2018-12-16T21:02:09.990Z,23
2018-12-16T21:04:04.704Z,23
2018-12-16T21:06:05.624Z,23
2018-12-16T21:08:07.837Z,23
2018-12-16T21:10:08.060Z,23
2018-12-16T21:12:04.744Z,23
2018-12-16T21:14:07.974Z,23.1
2018-12-16T21:16:09.967Z,23.2
2018-12-16T21:18:04.847Z,23.2
2018-12-16T21:20:05.548Z,23.2
2018-12-16T21:22:05.270Z,23.2
2018-12-16T21:24:05.303Z,23.1
2018-12-16T21:26:04.981Z,23.1
2018-12-16T21:28:04.812Z,23.1
2018-12-16T21:30:05.075Z,23.1
2018-12-16T21:32:07.479Z,23.1
2018-12-16T21:34:05.206Z,23.1
2018-12-16T21:36:04.927Z,23.1
2018-12-16T21:38:05.092Z,23.1
2018-12-16T21:40:07.262Z,23.1
2018-12-16T21:42:04.925Z,23.2
2018-12-16T21:44:05.637Z,23.2
2018-12-16T21:46:05.379Z,23.2
2018-12-16T21:48:10.091Z,23.1
2018-12-16T21:50:07.307Z,23.1
2018-12-16T21:52:05.153Z,23.2
2018-12-16T21:54:04.926Z,23.1
2018-12-16T21:56:05.127Z,23.1
2018-12-16T21:58:09.873Z,23.2
2018-12-16T22:00:05.570Z,23.2
2018-12-16T22:02:05.230Z,23.1
2018-12-16T22:04:04.941Z,23.1
2018-12-16T22:06:04.853Z,23.1
2018-12-16T22:08:05.553Z,23.1
2018-12-16T22:10:07.769Z,23.1
2018-12-16T22:12:05.473Z,23.1
2018-12-16T22:14:07.694Z,23.1
2018-12-16T22:16:05.629Z,23.1
2018-12-16T22:18:05.573Z,23.1
2018-12-16T22:20:05.310Z,23
2018-12-16T22:22:07.625Z,23.1
2018-12-16T22:24:04.901Z,23.1
2018-12-16T22:26:04.771Z,23.1
2018-12-16T22:28:05.694Z,23.1
2018-12-16T22:30:05.407Z,23.1
2018-12-16T22:32:05.146Z,23.1
2018-12-16T22:34:04.833Z,23.1
2018-12-16T22:36:05.469Z,23.1
2018-12-16T22:38:07.878Z,23.1
2018-12-16T22:40:05.547Z,23.1
2018-12-16T22:42:07.800Z,23.1
2018-12-16T22:44:05.808Z,23.1
2018-12-16T22:46:05.176Z,23.1
2018-12-16T22:48:04.858Z,23.2
2018-12-16T22:50:05.516Z,23.2
2018-12-16T22:52:07.706Z,23.1
2018-12-16T22:54:05.433Z,23.2
2018-12-16T22:56:04.809Z,23.2
2018-12-16T22:58:05.488Z,23.2
2018-12-16T23:00:05.193Z,23.2
2018-12-16T23:02:05.571Z,23.2
2018-12-16T23:04:07.786Z,23.1
2018-12-16T23:06:08.110Z,23.1
2018-12-16T23:08:04.828Z,23.1
2018-12-16T23:10:05.501Z,23.1
2018-12-16T23:12:05.140Z,23.1
2018-12-16T23:14:04.801Z,23.1
2018-12-16T23:16:05.491Z,23.1
2018-12-16T23:18:05.622Z,23.1
2018-12-16T23:20:05.569Z,23
2018-12-16T23:22:05.198Z,23
2018-12-16T23:24:07.408Z,23
2018-12-16T23:26:05.077Z,23
2018-12-16T23:28:05.266Z,23
2018-12-16T23:30:05.179Z,23
2018-12-16T23:32:10.541Z,23
2018-12-16T23:34:10.007Z,23
2018-12-16T23:36:04.727Z,23
2018-12-16T23:38:05.461Z,23
2018-12-16T23:40:05.131Z,23
2018-12-16T23:42:05.292Z,22.9
2018-12-16T23:44:04.953Z,23
2018-12-16T23:46:04.593Z,22.9
2018-12-16T23:48:07.376Z,23
2018-12-16T23:50:05.110Z,23
2018-12-16T23:52:10.083Z,23
2018-12-16T23:54:04.733Z,23
2018-12-16T23:56:05.450Z,22.9
2018-12-16T23:58:10.269Z,22.9
